Time;durP1;ratioP1;P1;durP2;ratioP2;P2;SDS_P1;SDS_P2;PMS_P1;PMS_P2;Temp;Humidity;BMP_temperature;BMP_pressure;BME280_temperature;BME280_humidity;BME280_pressure;Samples;Min_cycle;Max_cycle;Signal;HPM_P1;HPM_P2
2023/06/11 00:00:42;;;;;;;11.32;7.68;;;20.30;99.90;;;;;;5052260;28;20036;-62
2023/06/11 00:03:07;;;;;;;10.32;8.40;;;20.40;99.90;;;;;;5053979;28;20036;-62
2023/06/11 00:05:33;;;;;;;11.55;8.60;;;20.40;99.90;;;;;;5070353;28;20044;-62
2023/06/11 00:08:00;;;;;;;9.50;8.50;;;20.50;99.90;;;;;;5060940;28;20054;-62
2023/06/11 00:10:27;;;;;;;10.98;8.45;;;20.50;99.90;;;;;;5066283;28;20045;-62
2023/06/11 00:12:53;;;;;;;13.90;9.07;;;20.50;99.90;;;;;;5068718;28;20532;-62
2023/06/11 00:15:19;;;;;;;13.95;9.38;;;20.50;99.90;;;;;;5057440;28;20036;-61
2023/06/11 00:17:45;;;;;;;10.63;8.32;;;20.50;99.90;;;;;;5067429;28;20098;-62
2023/06/11 00:20:11;;;;;;;9.93;8.02;;;20.60;99.90;;;;;;5067884;28;20037;-62
2023/06/11 00:22:38;;;;;;;11.77;8.50;;;20.60;99.90;;;;;;5064669;28;20086;-63
2023/06/11 00:25:06;;;;;;;10.10;7.80;;;20.60;99.90;;;;;;5064053;28;20037;-63
2023/06/11 00:27:32;;;;;;;10.48;8.02;;;20.70;99.90;;;;;;5062226;28;20048;-63
2023/06/11 00:30:01;;;;;;;10.30;7.15;;;20.70;99.90;;;;;;5058430;28;20044;-63
2023/06/11 00:32:26;;;;;;;9.65;7.45;;;20.80;99.90;;;;;;5051081;28;20122;-63
2023/06/11 00:34:53;;;;;;;10.68;7.82;;;20.80;99.90;;;;;;5050184;28;20048;-62
2023/06/11 00:37:18;;;;;;;9.10;7.72;;;20.80;99.90;;;;;;5050647;28;20049;-62
2023/06/11 00:39:44;;;;;;;9.57;7.70;;;20.80;99.90;;;;;;5062811;28;20024;-62
2023/06/11 00:42:10;;;;;;;9.05;7.10;;;20.80;99.90;;;;;;5067483;28;20516;-62
2023/06/11 00:44:36;;;;;;;12.65;8.07;;;20.80;99.90;;;;;;5065498;28;20090;-62
2023/06/11 00:47:02;;;;;;;8.50;7.63;;;20.90;99.90;;;;;;5067029;28;20089;-62
2023/06/11 00:49:28;;;;;;;8.75;7.85;;;20.80;99.90;;;;;;5058661;28;20504;-63
2023/06/11 00:51:54;;;;;;;9.85;7.72;;;20.80;99.90;;;;;;5056989;28;20048;-63
2023/06/11 00:54:19;;;;;;;10.13;8.23;;;20.80;99.90;;;;;;5067354;28;20382;-63
2023/06/11 00:56:45;;;;;;;9.25;7.80;;;20.80;99.90;;;;;;5070991;28;20043;-62
2023/06/11 00:59:13;;;;;;;8.18;7.38;;;20.80;99.90;;;;;;5071080;28;20045;-62
2023/06/11 01:01:45;;;;;;;8.70;7.32;;;20.80;99.90;;;;;;5064566;28;20101;-62
2023/06/11 01:04:17;;;;;;;9.85;8.20;;;20.80;99.90;;;;;;5063367;28;20444;-63
2023/06/11 01:06:49;;;;;;;10.40;7.63;;;20.70;99.90;;;;;;5068066;28;20063;-62
2023/06/11 01:09:22;;;;;;;10.75;7.85;;;20.70;99.90;;;;;;5073599;28;20098;-62
2023/06/11 01:11:53;;;;;;;8.95;8.05;;;20.70;99.90;;;;;;5075034;28;20055;-62
2023/06/11 01:14:20;;;;;;;9.95;7.57;;;20.70;99.90;;;;;;5070027;28;20044;-62
2023/06/11 01:17:02;;;;;;;9.30;7.93;;;20.60;99.90;;;;;;5064831;28;20037;-62
2023/06/11 01:19:38;;;;;;;9.88;8.10;;;20.60;99.90;;;;;;5062806;28;20044;-62
2023/06/11 01:22:18;;;;;;;10.25;8.00;;;20.60;99.90;;;;;;5065338;28;20043;-62
2023/06/11 01:24:43;;;;;;;10.45;7.90;;;20.70;99.90;;;;;;5058417;28;20045;-62
2023/06/11 01:27:43;;;;;;;10.43;8.70;;;20.50;99.90;;;;;;5054392;28;20403;-62
2023/06/11 01:30:17;;;;;;;9.38;8.23;;;20.50;99.90;;;;;;5055975;28;20056;-62
2023/06/11 01:32:47;;;;;;;9.38;8.43;;;20.40;99.90;;;;;;5063431;28;20048;-62
2023/06/11 01:35:14;;;;;;;11.10;8.48;;;20.30;99.90;;;;;;5069475;28;20087;-62
2023/06/11 01:37:45;;;;;;;9.10;8.20;;;20.40;99.90;;;;;;5066384;28;20036;-62
2023/06/11 01:40:12;;;;;;;8.90;8.00;;;20.30;99.90;;;;;;5065997;28;20450;-62
2023/06/11 01:42:37;;;;;;;9.63;8.48;;;20.20;99.90;;;;;;5065610;28;20076;-62
2023/06/11 01:45:03;;;;;;;11.15;9.00;;;20.20;99.90;;;;;;5059486;28;20068;-62
2023/06/11 01:47:29;;;;;;;9.93;8.38;;;20.10;99.90;;;;;;5067492;28;20498;-62
2023/06/11 01:49:55;;;;;;;9.40;8.32;;;20.10;99.90;;;;;;5072969;28;20051;-62
2023/06/11 01:52:20;;;;;;;11.60;8.68;;;20.00;99.90;;;;;;5062843;28;20495;-62
2023/06/11 01:54:46;;;;;;;10.05;8.88;;;20.00;99.90;;;;;;5067371;28;20045;-62
2023/06/11 01:57:14;;;;;;;10.80;8.68;;;20.00;99.90;;;;;;5065591;28;20079;-62
2023/06/11 01:59:40;;;;;;;11.02;8.35;;;19.90;99.90;;;;;;5065895;28;20514;-62
2023/06/11 02:02:05;;;;;;;10.23;9.13;;;19.90;99.90;;;;;;5055432;28;20029;-62
2023/06/11 02:04:31;;;;;;;9.02;8.13;;;19.80;99.90;;;;;;5058216;28;20127;-62
2023/06/11 02:06:56;;;;;;;10.00;8.88;;;19.80;99.90;;;;;;5057982;28;20033;-62
2023/06/11 02:09:22;;;;;;;11.85;9.18;;;19.80;99.90;;;;;;5072051;28;20490;-62
2023/06/11 02:11:48;;;;;;;10.52;9.45;;;19.70;99.90;;;;;;5055302;28;20060;-61
2023/06/11 02:14:13;;;;;;;13.30;8.82;;;19.70;99.90;;;;;;5054303;28;20041;-62
2023/06/11 02:16:39;;;;;;;11.07;8.80;;;19.60;99.90;;;;;;5073002;28;20051;-62
2023/06/11 02:19:04;;;;;;;10.20;8.88;;;19.60;99.90;;;;;;5062757;28;20119;-62
2023/06/11 02:21:30;;;;;;;12.30;9.52;;;19.60;99.90;;;;;;5053472;28;20538;-62
2023/06/11 02:23:55;;;;;;;10.18;8.80;;;19.50;99.90;;;;;;5053427;28;20033;-62
2023/06/11 02:26:21;;;;;;;10.77;9.50;;;19.40;99.90;;;;;;5057162;28;20383;-62
2023/06/11 02:28:47;;;;;;;12.07;9.27;;;19.40;99.90;;;;;;5056830;28;20495;-62
2023/06/11 02:31:12;;;;;;;10.52;8.95;;;19.40;99.90;;;;;;5072335;28;20044;-62
2023/06/11 02:33:38;;;;;;;13.07;9.30;;;19.40;99.90;;;;;;5064429;28;20040;-62
2023/06/11 02:36:04;;;;;;;12.15;9.65;;;19.40;99.90;;;;;;5054270;28;20540;-62
2023/06/11 02:38:30;;;;;;;11.25;9.77;;;19.40;99.90;;;;;;5053312;28;20095;-62
2023/06/11 02:40:55;;;;;;;10.38;9.38;;;19.40;99.90;;;;;;5053411;28;20510;-62
2023/06/11 02:43:21;;;;;;;10.93;9.52;;;19.30;99.90;;;;;;5054920;28;20132;-62
2023/06/11 02:45:46;;;;;;;11.45;9.48;;;19.40;99.90;;;;;;5061382;28;20040;-62
2023/06/11 02:48:12;;;;;;;11.23;9.88;;;19.30;99.90;;;;;;5058334;28;20043;-62
2023/06/11 02:50:38;;;;;;;11.70;9.35;;;19.20;99.90;;;;;;5072452;28;20087;-62
2023/06/11 02:53:03;;;;;;;10.65;9.55;;;19.20;99.90;;;;;;5072251;28;20036;-62
2023/06/11 02:55:29;;;;;;;12.27;10.15;;;19.20;99.90;;;;;;5072659;28;20047;-62
2023/06/11 02:57:55;;;;;;;12.18;10.40;;;19.20;99.90;;;;;;5072967;28;20508;-62
2023/06/11 03:00:20;;;;;;;11.23;10.05;;;19.10;99.90;;;;;;5058302;28;20036;-62
2023/06/11 03:02:46;;;;;;;12.25;10.43;;;19.10;99.90;;;;;;5052690;28;20044;-62
2023/06/11 03:05:11;;;;;;;13.45;10.50;;;19.10;99.90;;;;;;5062596;28;20115;-62
2023/06/11 03:07:37;;;;;;;11.70;10.50;;;19.00;99.90;;;;;;5057847;28;20041;-62
2023/06/11 03:10:03;;;;;;;11.95;10.63;;;19.10;99.90;;;;;;5069414;28;20044;-62
2023/06/11 03:12:29;;;;;;;11.60;10.38;;;19.00;99.90;;;;;;5072658;28;20033;-62
2023/06/11 03:14:54;;;;;;;12.82;11.38;;;19.00;99.90;;;;;;5068525;28;20039;-62
2023/06/11 03:17:20;;;;;;;12.50;11.23;;;19.00;99.90;;;;;;5067837;28;20033;-62
2023/06/11 03:19:45;;;;;;;12.20;10.00;;;19.00;99.90;;;;;;5054693;28;20073;-62
2023/06/11 03:22:11;;;;;;;11.80;10.63;;;18.90;99.90;;;;;;5072060;28;20032;-62
2023/06/11 03:24:37;;;;;;;13.38;11.45;;;18.90;99.90;;;;;;5071688;28;20048;-62
2023/06/11 03:27:02;;;;;;;11.88;10.60;;;18.90;99.90;;;;;;5072277;28;20412;-62
2023/06/11 03:29:28;;;;;;;12.63;10.77;;;18.90;99.90;;;;;;5072421;28;20109;-62
2023/06/11 03:31:53;;;;;;;12.27;11.10;;;18.90;99.90;;;;;;5066333;28;20108;-62
2023/06/11 03:34:19;;;;;;;12.50;10.57;;;18.90;99.90;;;;;;5069871;28;20033;-62
2023/06/11 03:36:45;;;;;;;11.63;10.45;;;18.90;99.90;;;;;;5063233;28;20040;-62
2023/06/11 03:39:10;;;;;;;12.25;10.75;;;18.90;99.90;;;;;;5067865;28;20071;-62
2023/06/11 03:41:36;;;;;;;12.13;10.93;;;18.80;99.90;;;;;;5063570;28;20044;-62
2023/06/11 03:44:01;;;;;;;12.77;11.23;;;18.90;99.90;;;;;;5059112;28;20064;-62
2023/06/11 03:46:27;;;;;;;13.00;11.60;;;18.90;99.90;;;;;;5059998;28;20040;-62
2023/06/11 03:48:53;;;;;;;12.68;11.13;;;18.90;99.90;;;;;;5068732;28;20037;-62
2023/06/11 03:51:18;;;;;;;13.40;11.95;;;18.90;99.90;;;;;;5063455;28;20121;-62
2023/06/11 03:53:44;;;;;;;13.00;11.70;;;18.90;99.90;;;;;;5068625;22;20060;-65
2023/06/11 03:56:09;;;;;;;12.23;10.98;;;19.00;99.90;;;;;;5050444;28;20037;-65
2023/06/11 03:58:35;;;;;;;12.77;11.48;;;18.90;99.90;;;;;;5049612;28;21860;-64
2023/06/11 04:01:01;;;;;;;12.10;10.95;;;19.00;99.90;;;;;;5050185;28;20159;-64
2023/06/11 04:03:27;;;;;;;14.52;11.55;;;18.90;99.90;;;;;;5049216;28;20036;-65
2023/06/11 04:05:52;;;;;;;12.77;11.32;;;19.00;99.90;;;;;;5031796;28;20520;-65
2023/06/11 04:08:18;;;;;;;12.63;11.25;;;18.90;99.90;;;;;;5033440;28;20048;-65
2023/06/11 04:10:43;;;;;;;12.57;11.27;;;19.00;99.90;;;;;;5034672;28;20032;-65
2023/06/11 04:13:09;;;;;;;13.20;11.30;;;19.00;99.90;;;;;;5051256;28;20037;-64
2023/06/11 04:15:35;;;;;;;13.77;11.77;;;19.00;99.90;;;;;;5050934;28;20514;-65
2023/06/11 04:18:00;;;;;;;13.48;11.63;;;19.00;99.90;;;;;;5051368;28;20037;-65
2023/06/11 04:20:26;;;;;;;13.77;12.38;;;18.90;99.90;;;;;;5050395;28;20464;-65
2023/06/11 04:22:53;;;;;;;16.27;12.57;;;19.00;99.90;;;;;;5049460;28;20514;-65
2023/06/11 04:25:18;;;;;;;13.98;12.10;;;19.00;99.90;;;;;;5051194;28;20045;-65
2023/06/11 04:27:46;;;;;;;14.50;11.63;;;19.00;99.90;;;;;;5051595;28;20388;-65
2023/06/11 04:30:14;;;;;;;13.82;12.43;;;19.10;99.90;;;;;;5050820;28;20037;-65
2023/06/11 04:32:40;;;;;;;13.13;11.82;;;19.10;99.90;;;;;;5050890;28;20092;-65
2023/06/11 04:35:06;;;;;;;14.45;12.48;;;19.10;99.90;;;;;;5049961;28;20052;-65
2023/06/11 04:37:38;;;;;;;12.98;11.68;;;19.10;99.90;;;;;;5055489;28;20479;-65
2023/06/11 04:40:14;;;;;;;14.60;12.32;;;19.10;99.90;;;;;;5054587;28;20033;-65
2023/06/11 04:42:43;;;;;;;13.18;11.77;;;19.10;99.90;;;;;;5053109;28;20080;-65
2023/06/11 04:45:09;;;;;;;14.50;12.98;;;19.20;99.90;;;;;;5053970;28;20136;-64
2023/06/11 04:47:36;;;;;;;13.68;12.07;;;19.20;99.90;;;;;;5055610;28;20052;-65
2023/06/11 04:50:04;;;;;;;13.43;12.02;;;19.20;99.90;;;;;;5053734;28;20418;-65
2023/06/11 04:52:35;;;;;;;15.80;12.90;;;19.30;99.90;;;;;;5055179;28;20482;-65
2023/06/11 04:55:01;;;;;;;14.35;12.48;;;19.30;99.90;;;;;;5054551;28;20051;-65
2023/06/11 04:57:28;;;;;;;16.88;12.82;;;19.40;99.90;;;;;;5043960;28;20049;-65
2023/06/11 04:59:54;;;;;;;14.07;12.57;;;19.40;99.90;;;;;;5033499;28;20419;-65
2023/06/11 05:02:21;;;;;;;13.98;12.48;;;19.60;99.90;;;;;;5048202;28;20033;-65
2023/06/11 05:04:49;;;;;;;15.48;12.80;;;19.60;99.90;;;;;;5053579;28;20041;-65
2023/06/11 05:07:17;;;;;;;15.15;12.52;;;19.70;99.90;;;;;;5053955;28;20457;-65
2023/06/11 05:09:44;;;;;;;13.68;11.95;;;19.80;99.90;;;;;;5054848;28;20068;-65
2023/06/11 05:12:10;;;;;;;14.00;12.40;;;19.90;99.90;;;;;;5046739;28;20033;-65
2023/06/11 05:14:35;;;;;;;15.10;12.95;;;20.00;99.90;;;;;;5054058;28;20533;-65
2023/06/11 05:17:01;;;;;;;13.43;12.02;;;20.10;99.90;;;;;;5052872;28;20501;-65
2023/06/11 05:19:26;;;;;;;13.93;12.52;;;20.20;99.90;;;;;;5050551;28;20064;-65
2023/06/11 05:21:52;;;;;;;14.65;13.05;;;20.20;99.90;;;;;;5052814;28;20044;-65
2023/06/11 05:24:21;;;;;;;14.30;12.35;;;20.30;99.90;;;;;;5046287;28;20084;-65
2023/06/11 05:26:46;;;;;;;13.95;12.45;;;20.40;99.90;;;;;;5050362;28;20040;-65
2023/06/11 05:29:12;;;;;;;13.93;12.52;;;20.50;99.90;;;;;;5051387;28;20048;-64
2023/06/11 05:31:38;;;;;;;13.48;12.15;;;20.60;99.90;;;;;;5054055;28;20041;-64
2023/06/11 05:34:04;;;;;;;13.23;11.77;;;20.80;99.90;;;;;;5054157;28;20434;-65
2023/06/11 05:36:31;;;;;;;13.48;11.80;;;21.00;99.90;;;;;;5051094;28;20044;-65
2023/06/11 05:38:56;;;;;;;13.40;12.00;;;21.20;99.90;;;;;;5052842;28;20100;-65
2023/06/11 05:41:22;;;;;;;13.05;11.60;;;21.20;99.90;;;;;;5052218;28;20502;-64
2023/06/11 05:43:48;;;;;;;12.65;11.35;;;21.30;99.90;;;;;;5052640;28;20394;-64
2023/06/11 05:46:15;;;;;;;13.38;11.82;;;21.40;99.90;;;;;;5046185;28;20037;-65
2023/06/11 05:48:43;;;;;;;15.27;12.05;;;21.40;99.90;;;;;;5050883;28;20056;-64
2023/06/11 05:51:10;;;;;;;13.10;11.70;;;21.50;99.90;;;;;;5053979;28;20506;-65
2023/06/11 05:53:35;;;;;;;13.07;11.60;;;21.50;99.90;;;;;;5044884;28;20045;-64
2023/06/11 05:56:03;;;;;;;13.80;11.60;;;21.40;99.90;;;;;;5058654;28;20379;-65
2023/06/11 05:58:33;;;;;;;15.25;11.30;;;21.40;99.90;;;;;;5051685;28;20061;-67
2023/06/11 06:01:03;;;;;;;13.18;11.57;;;21.50;99.90;;;;;;5052846;28;20037;-65
2023/06/11 06:03:35;;;;;;;14.63;11.77;;;21.50;99.90;;;;;;5052421;28;20124;-65
2023/06/11 06:06:02;;;;;;;12.85;10.80;;;21.60;99.90;;;;;;5038201;28;20597;-66
2023/06/11 06:08:29;;;;;;;15.23;11.07;;;21.60;99.90;;;;;;5040898;28;20040;-66
2023/06/11 06:10:55;;;;;;;14.93;12.40;;;21.70;99.90;;;;;;5052575;28;20041;-66
2023/06/11 06:13:25;;;;;;;13.52;11.43;;;21.80;99.90;;;;;;5053584;28;20064;-66
2023/06/11 06:15:52;;;;;;;12.90;11.50;;;21.80;99.90;;;;;;5051853;28;20052;-66
2023/06/11 06:18:18;;;;;;;12.40;11.20;;;21.90;99.90;;;;;;5034709;28;20037;-66
2023/06/11 06:20:43;;;;;;;12.30;11.05;;;22.00;99.90;;;;;;5051248;28;20419;-66
2023/06/11 06:23:09;;;;;;;12.85;11.40;;;22.10;99.90;;;;;;5045365;28;20033;-66
2023/06/11 06:25:37;;;;;;;13.77;11.07;;;22.20;99.90;;;;;;5048001;28;20080;-66
2023/06/11 06:28:06;;;;;;;12.60;11.15;;;22.30;99.90;;;;;;5047284;28;20498;-66
2023/06/11 06:30:33;;;;;;;15.82;11.02;;;22.40;99.90;;;;;;5052153;28;20087;-66
2023/06/11 06:33:01;;;;;;;12.57;11.35;;;22.50;99.90;;;;;;5051553;28;20048;-66
2023/06/11 06:35:31;;;;;;;11.98;10.70;;;22.50;99.90;;;;;;5050666;28;20036;-66
2023/06/11 06:37:56;;;;;;;13.18;10.85;;;22.60;99.90;;;;;;5049589;28;20114;-66
2023/06/11 06:40:23;;;;;;;15.88;11.65;;;22.60;99.90;;;;;;5052542;28;20499;-66
2023/06/11 06:42:48;;;;;;;15.48;11.20;;;22.80;99.90;;;;;;5051123;28;20522;-66
2023/06/11 06:45:14;;;;;;;11.77;10.40;;;22.80;99.90;;;;;;5051882;28;20068;-66
2023/06/11 06:47:39;;;;;;;13.15;10.75;;;23.00;99.90;;;;;;5049880;28;20083;-66
2023/06/11 06:50:06;;;;;;;12.45;11.02;;;23.10;99.90;;;;;;5050522;28;20080;-66
2023/06/11 06:52:31;;;;;;;13.35;10.93;;;23.20;99.90;;;;;;5052208;28;20044;-66
2023/06/11 06:54:57;;;;;;;12.27;10.98;;;23.20;99.90;;;;;;5052063;28;20045;-66
2023/06/11 06:57:23;;;;;;;11.93;10.48;;;23.40;99.90;;;;;;5049806;28;20178;-66
2023/06/11 06:59:48;;;;;;;11.55;10.43;;;23.60;99.90;;;;;;5051198;28;20036;-66
2023/06/11 07:02:14;;;;;;;11.85;10.57;;;23.70;99.90;;;;;;5050233;28;20033;-66
2023/06/11 07:04:41;;;;;;;12.38;10.48;;;23.80;99.90;;;;;;5051702;28;20043;-66
2023/06/11 07:07:07;;;;;;;11.98;10.55;;;23.90;99.90;;;;;;5051280;28;20374;-66
2023/06/11 07:09:32;;;;;;;12.15;10.35;;;24.00;99.90;;;;;;5052542;28;20044;-66
2023/06/11 07:11:58;;;;;;;12.75;10.82;;;24.10;99.90;;;;;;5051897;28;20063;-65
2023/06/11 07:14:23;;;;;;;11.82;10.60;;;24.30;99.90;;;;;;5050077;28;20429;-66
2023/06/11 07:16:49;;;;;;;12.40;10.48;;;24.40;99.90;;;;;;5051772;28;20118;-66
2023/06/11 07:19:14;;;;;;;19.42;11.30;;;24.50;99.90;;;;;;5050668;28;20102;-66
2023/06/11 07:21:40;;;;;;;11.95;9.98;;;24.60;99.90;;;;;;5050836;28;20037;-66
2023/06/11 07:24:07;;;;;;;13.40;10.70;;;24.80;99.90;;;;;;5052247;28;20055;-65
2023/06/11 07:26:33;;;;;;;12.18;10.35;;;24.80;99.90;;;;;;5051635;28;20041;-66
2023/06/11 07:28:59;;;;;;;12.15;10.05;;;24.90;99.90;;;;;;5048618;28;20039;-66
2023/06/11 07:31:26;;;;;;;12.02;10.50;;;25.00;99.90;;;;;;5051859;28;20033;-65
2023/06/11 07:33:52;;;;;;;12.50;10.07;;;25.10;99.90;;;;;;5051417;28;20037;-66
2023/06/11 07:36:18;;;;;;;11.13;10.02;;;25.20;99.90;;;;;;5044155;28;20037;-66
2023/06/11 07:38:44;;;;;;;12.23;10.32;;;25.30;99.90;;;;;;5049630;28;20044;-66
2023/06/11 07:41:11;;;;;;;11.63;10.45;;;25.40;99.70;;;;;;5050699;28;20044;-66
2023/06/11 07:43:36;;;;;;;12.93;11.65;;;25.50;98.60;;;;;;5050785;28;20044;-66
2023/06/11 07:46:03;;;;;;;11.52;10.32;;;25.50;97.90;;;;;;5050286;28;20037;-66
2023/06/11 07:48:29;;;;;;;11.27;9.73;;;25.60;97.80;;;;;;5049996;28;20492;-66
2023/06/11 07:50:55;;;;;;;11.27;9.55;;;25.60;98.00;;;;;;5049752;28;20033;-65
2023/06/11 07:53:21;;;;;;;11.63;10.13;;;25.80;97.70;;;;;;5048670;28;20032;-63
2023/06/11 07:55:49;;;;;;;10.38;9.27;;;25.90;96.70;;;;;;5050598;28;20036;-63
2023/06/11 07:58:15;;;;;;;13.57;9.77;;;25.90;96.20;;;;;;5043402;28;20035;-63
2023/06/11 08:00:41;;;;;;;10.75;9.57;;;26.00;95.90;;;;;;5047733;28;20029;-63
2023/06/11 08:03:09;;;;;;;11.05;9.75;;;26.20;95.60;;;;;;5048681;28;20463;-63
2023/06/11 08:05:34;;;;;;;10.18;9.20;;;26.30;96.00;;;;;;5049622;28;20060;-63
2023/06/11 08:08:00;;;;;;;10.65;9.55;;;26.50;95.00;;;;;;5049630;28;20115;-63
2023/06/11 08:10:25;;;;;;;10.85;9.55;;;26.70;94.00;;;;;;5048989;28;20498;-63
2023/06/11 08:12:51;;;;;;;10.52;9.52;;;26.80;93.90;;;;;;5056565;28;20048;-64
2023/06/11 08:15:17;;;;;;;12.13;8.98;;;26.80;93.20;;;;;;5053423;28;20040;-63
2023/06/11 08:17:43;;;;;;;9.48;8.50;;;26.90;92.80;;;;;;5051135;28;20033;-63
2023/06/11 08:20:09;;;;;;;10.60;9.40;;;27.10;92.90;;;;;;5050590;28;20398;-63
2023/06/11 08:22:35;;;;;;;10.82;9.70;;;27.30;92.60;;;;;;5050641;28;20048;-63
2023/06/11 08:25:00;;;;;;;10.82;9.18;;;27.40;92.50;;;;;;5050199;28;20029;-63
2023/06/11 08:27:26;;;;;;;9.30;8.50;;;27.40;91.60;;;;;;5049266;28;20041;-63
2023/06/11 08:29:51;;;;;;;11.60;8.82;;;27.50;90.60;;;;;;5053279;28;20060;-63
2023/06/11 08:32:17;;;;;;;9.55;8.65;;;27.50;90.20;;;;;;5047351;28;20036;-63
2023/06/11 08:34:43;;;;;;;9.45;8.43;;;27.60;89.40;;;;;;5048425;28;20037;-63
2023/06/11 08:37:08;;;;;;;10.40;8.38;;;27.70;87.80;;;;;;5049021;28;20045;-63
2023/06/11 08:39:34;;;;;;;9.82;8.75;;;27.70;88.10;;;;;;5049380;28;20033;-63
2023/06/11 08:42:12;;;;;;;9.50;8.45;;;27.80;86.60;;;;;;5047781;28;20029;-63
2023/06/11 08:44:38;;;;;;;9.27;7.82;;;27.90;85.50;;;;;;5054998;28;20390;-63
2023/06/11 08:47:04;;;;;;;10.57;8.10;;;27.90;84.40;;;;;;5048835;28;20083;-63
2023/06/11 08:49:30;;;;;;;9.90;8.68;;;28.00;84.40;;;;;;5050447;28;20029;-63
2023/06/11 08:52:01;;;;;;;9.55;8.43;;;28.20;84.80;;;;;;5048377;28;20166;-63
2023/06/11 08:54:27;;;;;;;9.75;8.50;;;28.30;83.50;;;;;;5051445;28;20037;-63
2023/06/11 08:56:53;;;;;;;11.50;8.43;;;28.40;82.00;;;;;;5045112;28;20049;-63
2023/06/11 08:59:19;;;;;;;10.57;8.80;;;28.50;81.40;;;;;;5048899;28;20071;-64
2023/06/11 09:01:50;;;;;;;9.77;8.40;;;28.50;80.30;;;;;;5047257;28;20533;-65
2023/06/11 09:04:16;;;;;;;9.13;8.23;;;28.50;78.80;;;;;;5036424;28;20050;-65
2023/06/11 09:06:58;;;;;;;9.15;7.97;;;28.50;78.40;;;;;;5044528;28;20044;-64
2023/06/11 09:09:25;;;;;;;9.70;8.70;;;28.70;78.30;;;;;;5048402;28;20052;-64
2023/06/11 09:11:51;;;;;;;8.52;7.63;;;28.70;76.40;;;;;;5050873;28;20040;-64
2023/06/11 09:14:16;;;;;;;9.50;8.50;;;28.90;76.10;;;;;;5050940;28;20457;-65
2023/06/11 09:16:44;;;;;;;9.20;8.20;;;28.90;74.50;;;;;;5048011;28;20068;-65
2023/06/11 09:19:18;;;;;;;9.10;8.20;;;29.00;74.80;;;;;;5051057;28;20376;-65
2023/06/11 09:21:51;;;;;;;11.88;8.23;;;29.00;75.20;;;;;;5051176;28;20116;-65
2023/06/11 09:24:19;;;;;;;9.07;7.95;;;29.00;74.90;;;;;;5049787;28;20585;-65
2023/06/11 09:26:55;;;;;;;8.90;7.97;;;29.10;73.90;;;;;;5051788;28;20056;-65
2023/06/11 09:29:25;;;;;;;8.82;7.65;;;29.10;72.80;;;;;;5053991;28;20040;-64
2023/06/11 09:32:08;;;;;;;8.93;7.85;;;29.20;72.00;;;;;;5051500;28;20032;-64
2023/06/11 09:34:34;;;;;;;9.32;7.75;;;29.20;71.00;;;;;;5052415;28;20445;-65
2023/06/11 09:37:00;;;;;;;8.23;7.43;;;29.20;71.30;;;;;;5052174;28;20038;-65
2023/06/11 09:39:27;;;;;;;7.95;7.15;;;29.20;71.70;;;;;;5051639;28;20033;-65
2023/06/11 09:41:54;;;;;;;8.15;7.30;;;29.30;71.60;;;;;;5048934;28;20477;-65
2023/06/11 09:44:20;;;;;;;9.93;7.50;;;29.30;70.80;;;;;;5048365;28;20037;-65
2023/06/11 09:46:50;;;;;;;8.82;7.72;;;29.30;70.40;;;;;;5050313;28;20462;-65
2023/06/11 09:49:16;;;;;;;7.82;7.13;;;29.50;71.50;;;;;;5058719;28;20578;-65
2023/06/11 09:51:43;;;;;;;8.77;6.97;;;29.60;71.50;;;;;;5052424;28;20123;-65
2023/06/11 09:54:10;;;;;;;8.40;7.15;;;29.70;68.40;;;;;;5072293;22;20505;-64
2023/06/11 09:56:37;;;;;;;9.52;7.03;;;29.70;66.70;;;;;;5061723;28;20479;-64
2023/06/11 09:59:04;;;;;;;8.55;7.10;;;29.70;65.20;;;;;;5071013;28;20044;-64
2023/06/11 10:01:30;;;;;;;8.65;6.68;;;29.70;65.10;;;;;;5069634;28;20040;-64
2023/06/11 10:04:00;;;;;;;7.40;6.60;;;29.80;64.10;;;;;;5070605;28;20402;-64
2023/06/11 10:06:32;;;;;;;10.07;7.07;;;30.00;64.20;;;;;;5060346;28;20506;-64
2023/06/11 10:09:01;;;;;;;7.20;6.38;;;30.10;63.30;;;;;;5063103;28;20048;-65
2023/06/11 10:11:30;;;;;;;7.00;6.28;;;30.20;63.50;;;;;;5072971;28;20094;-64
2023/06/11 10:13:58;;;;;;;6.82;6.05;;;30.10;60.50;;;;;;5072631;28;20395;-64
2023/06/11 10:16:25;;;;;;;6.95;6.18;;;30.10;60.20;;;;;;5073509;28;20043;-64
2023/06/11 10:18:52;;;;;;;8.32;6.13;;;30.10;60.20;;;;;;5073321;28;20490;-64
2023/06/11 10:21:18;;;;;;;7.72;6.38;;;30.20;59.80;;;;;;5073980;28;20043;-64
2023/06/11 10:23:50;;;;;;;6.78;6.07;;;30.30;58.70;;;;;;5072561;28;20498;-65
2023/06/11 10:26:16;;;;;;;7.57;6.88;;;30.40;57.90;;;;;;5072671;28;20045;-64
2023/06/11 10:28:49;;;;;;;8.38;6.00;;;30.50;58.30;;;;;;5073217;28;20415;-65
2023/06/11 10:31:29;;;;;;;6.75;6.15;;;30.60;58.90;;;;;;5073371;28;20045;-64
2023/06/11 10:34:02;;;;;;;7.53;6.43;;;30.70;58.10;;;;;;5071775;28;20490;-65
2023/06/11 10:36:37;;;;;;;7.03;6.32;;;30.70;57.40;;;;;;5073536;28;20041;-65
2023/06/11 10:39:10;;;;;;;8.15;6.50;;;30.70;56.70;;;;;;5072113;28;20048;-65
2023/06/11 10:41:40;;;;;;;7.32;6.20;;;30.70;56.30;;;;;;5073700;28;20045;-64
2023/06/11 10:44:07;;;;;;;8.05;6.28;;;30.80;55.00;;;;;;5071341;28;20501;-65
2023/06/11 10:46:51;;;;;;;10.68;6.50;;;30.70;54.10;;;;;;5073274;28;20489;-65
2023/06/11 10:49:19;;;;;;;7.45;6.65;;;30.70;54.00;;;;;;5072833;28;20064;-65
2023/06/11 10:51:47;;;;;;;8.13;6.20;;;30.80;54.20;;;;;;5073110;28;20036;-65
2023/06/11 10:54:24;;;;;;;7.15;6.30;;;30.80;53.30;;;;;;5071308;28;20048;-65
2023/06/11 10:56:50;;;;;;;7.07;6.18;;;30.90;53.40;;;;;;5072722;28;20487;-65
2023/06/11 10:59:17;;;;;;;7.95;6.30;;;31.00;52.70;;;;;;5072686;28;20064;-65
2023/06/11 11:01:43;;;;;;;6.75;6.15;;;31.00;52.80;;;;;;5072913;28;20041;-65
2023/06/11 11:04:08;;;;;;;6.82;6.10;;;31.10;52.70;;;;;;5072286;28;20057;-65
2023/06/11 11:06:36;;;;;;;8.60;6.50;;;31.20;53.10;;;;;;5071146;28;20115;-65
2023/06/11 11:09:02;;;;;;;8.25;6.43;;;31.20;52.90;;;;;;5072604;28;20075;-65
2023/06/11 11:11:28;;;;;;;6.63;5.90;;;31.20;52.10;;;;;;5072931;28;20101;-65
2023/06/11 11:14:03;;;;;;;6.90;6.18;;;31.20;52.20;;;;;;5070715;28;20045;-65
2023/06/11 11:16:29;;;;;;;7.45;6.70;;;31.10;51.90;;;;;;5072704;28;20041;-64
2023/06/11 11:18:54;;;;;;;7.10;6.50;;;31.20;52.60;;;;;;5071136;28;20044;-65
2023/06/11 11:21:27;;;;;;;8.82;6.65;;;31.30;53.00;;;;;;5072745;28;20064;-65
2023/06/11 11:23:53;;;;;;;6.95;6.22;;;31.40;51.40;;;;;;5072261;28;20040;-65
2023/06/11 11:26:18;;;;;;;8.45;6.80;;;31.20;51.10;;;;;;5072557;28;20047;-64
2023/06/11 11:28:45;;;;;;;8.48;6.95;;;31.10;50.90;;;;;;5072255;28;20071;-64
2023/06/11 11:31:14;;;;;;;8.05;6.50;;;31.10;51.50;;;;;;5072204;28;20116;-64
2023/06/11 11:33:40;;;;;;;7.73;6.40;;;31.10;50.90;;;;;;5072242;28;20036;-65
2023/06/11 11:36:06;;;;;;;7.55;6.70;;;31.30;50.40;;;;;;5072467;28;20294;-64
2023/06/11 11:38:36;;;;;;;7.70;6.28;;;31.20;50.20;;;;;;5053915;28;20076;-64
2023/06/11 11:41:06;;;;;;;7.15;6.45;;;31.30;50.40;;;;;;5070733;28;20120;-64
2023/06/11 11:43:42;;;;;;;7.95;7.15;;;31.40;51.10;;;;;;5071964;28;20111;-65
2023/06/11 11:46:19;;;;;;;7.28;6.38;;;31.40;50.60;;;;;;5071722;28;20090;-64
2023/06/11 11:48:45;;;;;;;7.90;6.68;;;31.30;50.60;;;;;;5071103;28;20060;-64
2023/06/11 11:51:15;;;;;;;6.95;6.18;;;31.30;50.10;;;;;;5071929;28;20041;-64
2023/06/11 11:53:41;;;;;;;;;;;31.40;50.50;;;;;;5070917;28;20040;-64
2023/06/11 11:56:07;;;;;;;6.93;6.32;;;31.40;50.70;;;;;;5070777;28;19920;-64
2023/06/11 11:58:37;;;;;;;9.02;6.80;;;31.40;50.00;;;;;;5071765;28;20387;-64
2023/06/11 12:01:03;;;;;;;9.75;7.07;;;31.30;49.70;;;;;;5071009;28;20397;-64
2023/06/11 12:03:29;;;;;;;8.02;6.55;;;31.00;49.90;;;;;;5071738;28;20037;-64
2023/06/11 12:06:22;;;;;;;9.70;6.80;;;31.00;50.40;;;;;;5072019;28;20040;-64
2023/06/11 12:08:48;;;;;;;7.90;6.40;;;31.00;49.80;;;;;;5070526;28;20044;-64
2023/06/11 12:11:13;;;;;;;7.38;6.50;;;30.90;50.20;;;;;;5071847;28;20047;-65
2023/06/11 12:13:39;;;;;;;9.52;6.63;;;31.00;51.00;;;;;;5071653;28;20041;-64
2023/06/11 12:16:04;;;;;;;7.40;6.43;;;31.10;50.60;;;;;;5071718;28;20036;-64
2023/06/11 12:18:30;;;;;;;9.63;7.22;;;31.20;49.90;;;;;;5070543;28;20120;-65
2023/06/11 12:20:56;;;;;;;7.20;6.50;;;31.40;50.00;;;;;;5071600;28;20029;-64
2023/06/11 12:23:21;;;;;;;7.97;6.80;;;31.30;49.20;;;;;;5071349;28;20079;-64
2023/06/11 12:25:47;;;;;;;8.27;6.63;;;31.10;49.20;;;;;;5071970;28;20036;-64
2023/06/11 12:28:12;;;;;;;7.13;6.43;;;31.00;49.70;;;;;;5071721;28;20089;-65
2023/06/11 12:30:40;;;;;;;8.63;6.40;;;31.00;49.30;;;;;;5071758;28;20036;-64
2023/06/11 12:33:06;;;;;;;9.82;6.25;;;31.20;49.50;;;;;;5071705;28;20036;-64
2023/06/11 12:35:31;;;;;;;9.52;6.35;;;31.20;49.80;;;;;;5071394;28;20046;-64
2023/06/11 12:37:57;;;;;;;7.95;6.20;;;31.10;49.70;;;;;;5071380;28;20028;-64